This is the latest recevied weather packets stored in our database for station/object WD7CGF. If no packets are shown the sender has not sent any weather packets the latest 1 day(s).
| Time | Temp. | Humidity | Pressure | Rain* | Wind** | Luminosity | Snow |
|---|---|---|---|---|---|---|---|
| 1778082502 | 19.44° C | 52% | 1013 hPa | 0 mm | - | - | - |
| 1778081913 | 18.89° C | 53% | 1013.2 hPa | 0 mm | - | - | - |
| 1778080108 | 17.78° C | 58% | 1013.1 hPa | 0 mm | - | - | - |
| 1778079500 | 17.78° C | 58% | 1013.1 hPa | 0 mm | - | - | - |
| 1778077712 | 17.22° C | 59% | 1013.3 hPa | 0 mm | - | - | - |
| 1778075318 | 15° C | 67% | 1013.3 hPa | 0 mm | - | - | - |
| 1778074709 | 14.44° C | 69% | 1013.2 hPa | 0 mm | - | - | - |
| 1778073512 | 13.89° C | 71% | 1013.2 hPa | 0 mm | - | - | - |
| 1778072299 | 13.33° C | 72% | 1013 hPa | 0 mm | - | - | - |
| 1778071101 | 12.78° C | 72% | 1013 hPa | 0 mm | - | - | - |
| 1778068116 | 14.44° C | 66% | 1012.3 hPa | 0 mm | - | - | - |
| 1778067506 | 14.44° C | 66% | 1012.3 hPa | 0 mm | - | - | - |
| 1778066307 | 14.44° C | 65% | 1012.3 hPa | 0 mm | - | - | - |
| 1778065718 | 15° C | 64% | 1012.2 hPa | 0 mm | - | - | - |
| 1778065109 | 15° C | 63% | 1012.1 hPa | 0 mm | - | - | - |
| 1778064499 | 15° C | 64% | 1012.1 hPa | 0 mm | - | - | - |
| 1778063301 | 15° C | 63% | 1011.8 hPa | 0 mm | - | - | - |
| 1778062714 | 15° C | 62% | 1011.8 hPa | 0 mm | - | - | - |
| 1778062103 | 15.56° C | 61% | 1011.6 hPa | 0 mm | - | - | - |
| 1778060904 | 15.56° C | 60% | 1011.6 hPa | 0 mm | - | - | - |
| 1778059104 | 15° C | 61% | 1011.7 hPa | 0 mm | - | - | - |
| 1778058516 | 15° C | 61% | 1011.6 hPa | 0 mm | - | - | - |
| 1778057907 | 15° C | 62% | 1011.6 hPa | 0 mm | - | - | - |
| 1778057299 | 15.56° C | 61% | 1011.6 hPa | 0 mm | - | - | - |
| 1778055514 | 15.56° C | 60% | 1011.6 hPa | 0 mm | - | - | - |
* Rain latest hour (hover to see other rain measurements)
** Current wind speed in m/s (hover to see current wind gust speed)